aviador You're here:

EGUN Decoded Metar

MILDENHALL in ENGLAND
Report Time2017-11-25 02:56:00
UTC Time2017-11-25 03:53:40
Flight Rules vfr VFR
Wind230° at 03 kt
W.Decomp.*RWY 29: 1.5 kt HW 2.6 kt LCW
W.Rank230° ranks 1
Current wind is below 230° avg. (9.7)
Visibility9999 m
Phenomena:N/A
Clouds:N/A
CeilingNone
Temp00°C (ISA -15)
Dew Point00°C (100% RH)
AAT-3.1°C
QNH1011 hPa
Density Alt-1,640 ft
Elevation33 ft
Report Wrong Elevation
Raw Report
EGUN 250256Z AUTO 23003KT 9999 CLR 00/00 A2986 RMK AO2 SLP115
T10011001 55002 .=

Extra information for EGUN:More info

Metar Taf Metar & Taf Last 4 Metars F.Rules Stats Wind Profile Meteogram Temp Stats Airport Information Weather charts Add Link Nearby VenuesMetar ALERT Operation Metar Decoded Social comments